sensor_id;sensor_type;location;lat;lon;timestamp;temperature;humidity
62339;DHT22;48368;53.406;6.214;2022-09-09T00:03:50;14.60;99.90
62339;DHT22;48368;53.406;6.214;2022-09-09T00:06:21;14.70;99.90
62339;DHT22;48368;53.406;6.214;2022-09-09T00:11:32;14.70;99.90
62339;DHT22;48368;53.406;6.214;2022-09-09T00:14:03;14.70;99.90
62339;DHT22;48368;53.406;6.214;2022-09-09T00:16:35;14.70;99.90
62339;DHT22;48368;53.406;6.214;2022-09-09T00:19:11;14.70;99.90
62339;DHT22;48368;53.406;6.214;2022-09-09T00:24:51;14.70;99.90
62339;DHT22;48368;53.406;6.214;2022-09-09T00:27:32;14.70;99.90
62339;DHT22;48368;53.406;6.214;2022-09-09T00:30:13;14.70;99.90
62339;DHT22;48368;53.406;6.214;2022-09-09T00:32:40;14.70;99.90
62339;DHT22;48368;53.406;6.214;2022-09-09T00:35:17;14.70;99.90
62339;DHT22;48368;53.406;6.214;2022-09-09T00:37:48;14.60;99.90
62339;DHT22;48368;53.406;6.214;2022-09-09T00:40:32;14.60;99.90
62339;DHT22;48368;53.406;6.214;2022-09-09T00:48:33;14.50;99.90
62339;DHT22;48368;53.406;6.214;2022-09-09T00:51:11;14.50;99.90
62339;DHT22;48368;53.406;6.214;2022-09-09T00:56:27;14.50;99.90
62339;DHT22;48368;53.406;6.214;2022-09-09T00:59:47;14.40;99.90
62339;DHT22;48368;53.406;6.214;2022-09-09T01:01:53;14.40;99.90
62339;DHT22;48368;53.406;6.214;2022-09-09T01:04:29;14.40;99.90
62339;DHT22;48368;53.406;6.214;2022-09-09T01:07:07;14.40;99.90
62339;DHT22;48368;53.406;6.214;2022-09-09T01:09:58;14.40;99.90
62339;DHT22;48368;53.406;6.214;2022-09-09T01:12:26;14.40;99.90
62339;DHT22;48368;53.406;6.214;2022-09-09T01:15:03;14.30;99.90
62339;DHT22;48368;53.406;6.214;2022-09-09T01:17:49;14.40;99.90
62339;DHT22;48368;53.406;6.214;2022-09-09T01:20:29;14.40;99.90
62339;DHT22;48368;53.406;6.214;2022-09-09T01:25:56;14.40;99.90
62339;DHT22;48368;53.406;6.214;2022-09-09T01:28:26;14.30;99.90
62339;DHT22;48368;53.406;6.214;2022-09-09T01:30:54;14.30;99.90
62339;DHT22;48368;53.406;6.214;2022-09-09T01:33:21;14.30;99.90
62339;DHT22;48368;53.406;6.214;2022-09-09T01:35:54;14.30;99.90
62339;DHT22;48368;53.406;6.214;2022-09-09T01:38:21;14.30;99.90
62339;DHT22;48368;53.406;6.214;2022-09-09T01:40:47;14.30;99.90
62339;DHT22;48368;53.406;6.214;2022-09-09T01:43:14;14.30;99.90
62339;DHT22;48368;53.406;6.214;2022-09-09T01:45:41;14.30;99.90
62339;DHT22;48368;53.406;6.214;2022-09-09T01:48:08;14.20;99.90
62339;DHT22;48368;53.406;6.214;2022-09-09T01:50:33;14.20;99.90
62339;DHT22;48368;53.406;6.214;2022-09-09T01:53:00;14.20;99.90
62339;DHT22;48368;53.406;6.214;2022-09-09T01:55:33;14.20;99.90
62339;DHT22;48368;53.406;6.214;2022-09-09T01:58:23;14.20;99.90
62339;DHT22;48368;53.406;6.214;2022-09-09T02:04:03;14.20;99.90
62339;DHT22;48368;53.406;6.214;2022-09-09T02:06:38;14.20;99.90
62339;DHT22;48368;53.406;6.214;2022-09-09T02:09:06;14.30;99.90
62339;DHT22;48368;53.406;6.214;2022-09-09T02:11:33;14.20;99.90
62339;DHT22;48368;53.406;6.214;2022-09-09T02:14:12;14.30;99.90
62339;DHT22;48368;53.406;6.214;2022-09-09T02:16:47;14.20;99.90
62339;DHT22;48368;53.406;6.214;2022-09-09T02:19:23;14.20;99.90
62339;DHT22;48368;53.406;6.214;2022-09-09T02:21:54;14.20;99.90
62339;DHT22;48368;53.406;6.214;2022-09-09T02:24:22;14.20;99.90
62339;DHT22;48368;53.406;6.214;2022-09-09T02:26:51;14.10;99.90
62339;DHT22;48368;53.406;6.214;2022-09-09T02:29:22;14.20;99.90
62339;DHT22;48368;53.406;6.214;2022-09-09T02:31:49;14.20;99.90
62339;DHT22;48368;53.406;6.214;2022-09-09T02:34:18;14.10;99.90
62339;DHT22;48368;53.406;6.214;2022-09-09T02:36:46;14.10;99.90
62339;DHT22;48368;53.406;6.214;2022-09-09T02:39:12;14.10;99.90
62339;DHT22;48368;53.406;6.214;2022-09-09T02:41:40;14.10;99.90
62339;DHT22;48368;53.406;6.214;2022-09-09T02:44:14;14.20;99.90
62339;DHT22;48368;53.406;6.214;2022-09-09T02:46:46;14.10;99.90
62339;DHT22;48368;53.406;6.214;2022-09-09T02:49:17;14.20;99.90
62339;DHT22;48368;53.406;6.214;2022-09-09T02:54:29;14.10;99.90
62339;DHT22;48368;53.406;6.214;2022-09-09T02:57:17;14.10;99.90
62339;DHT22;48368;53.406;6.214;2022-09-09T02:59:45;14.10;99.90
62339;DHT22;48368;53.406;6.214;2022-09-09T03:02:12;14.10;99.90
62339;DHT22;48368;53.406;6.214;2022-09-09T03:04:39;14.10;99.90
62339;DHT22;48368;53.406;6.214;2022-09-09T03:07:05;14.10;99.90
62339;DHT22;48368;53.406;6.214;2022-09-09T03:09:31;14.10;99.90
62339;DHT22;48368;53.406;6.214;2022-09-09T03:11:58;14.10;99.90
62339;DHT22;48368;53.406;6.214;2022-09-09T03:14:24;14.10;99.90
62339;DHT22;48368;53.406;6.214;2022-09-09T03:16:51;14.00;99.90
62339;DHT22;48368;53.406;6.214;2022-09-09T03:19:17;14.00;99.90
62339;DHT22;48368;53.406;6.214;2022-09-09T03:21:44;14.00;99.90
62339;DHT22;48368;53.406;6.214;2022-09-09T03:24:10;14.10;99.90
62339;DHT22;48368;53.406;6.214;2022-09-09T03:26:36;14.00;99.90
62339;DHT22;48368;53.406;6.214;2022-09-09T03:29:03;14.10;99.90
62339;DHT22;48368;53.406;6.214;2022-09-09T03:31:32;14.10;99.90
62339;DHT22;48368;53.406;6.214;2022-09-09T03:33:58;14.00;99.90
62339;DHT22;48368;53.406;6.214;2022-09-09T03:36:25;14.00;99.90
62339;DHT22;48368;53.406;6.214;2022-09-09T03:38:52;14.00;99.90
62339;DHT22;48368;53.406;6.214;2022-09-09T03:41:18;14.00;99.90
62339;DHT22;48368;53.406;6.214;2022-09-09T03:43:44;14.00;99.90
62339;DHT22;48368;53.406;6.214;2022-09-09T03:46:10;14.00;99.90
62339;DHT22;48368;53.406;6.214;2022-09-09T03:48:36;13.90;99.90
62339;DHT22;48368;53.406;6.214;2022-09-09T03:51:02;13.90;99.90
62339;DHT22;48368;53.406;6.214;2022-09-09T03:53:29;13.90;99.90
62339;DHT22;48368;53.406;6.214;2022-09-09T03:55:55;13.90;99.90
62339;DHT22;48368;53.406;6.214;2022-09-09T03:58:25;13.90;99.90
62339;DHT22;48368;53.406;6.214;2022-09-09T04:01:03;13.90;99.90
62339;DHT22;48368;53.406;6.214;2022-09-09T04:03:29;13.90;99.90
62339;DHT22;48368;53.406;6.214;2022-09-09T04:05:56;13.90;99.90
62339;DHT22;48368;53.406;6.214;2022-09-09T04:08:22;13.90;99.90
62339;DHT22;48368;53.406;6.214;2022-09-09T04:10:51;13.90;99.90
62339;DHT22;48368;53.406;6.214;2022-09-09T04:13:17;13.90;99.90
62339;DHT22;48368;53.406;6.214;2022-09-09T04:15:44;13.90;99.90
62339;DHT22;48368;53.406;6.214;2022-09-09T04:18:10;13.90;99.90
62339;DHT22;48368;53.406;6.214;2022-09-09T04:20:37;13.90;99.90
62339;DHT22;48368;53.406;6.214;2022-09-09T04:23:03;13.90;99.90
62339;DHT22;48368;53.406;6.214;2022-09-09T04:25:29;13.90;99.90
62339;DHT22;48368;53.406;6.214;2022-09-09T04:27:56;14.00;99.90
62339;DHT22;48368;53.406;6.214;2022-09-09T04:30:22;13.90;99.90
62339;DHT22;48368;53.406;6.214;2022-09-09T04:32:48;14.00;99.90
62339;DHT22;48368;53.406;6.214;2022-09-09T04:35:14;14.00;99.90
62339;DHT22;48368;53.406;6.214;2022-09-09T04:37:40;14.00;99.90
62339;DHT22;48368;53.406;6.214;2022-09-09T04:40:06;14.00;99.90
62339;DHT22;48368;53.406;6.214;2022-09-09T04:42:38;14.00;99.90
62339;DHT22;48368;53.406;6.214;2022-09-09T04:45:05;14.10;99.90
62339;DHT22;48368;53.406;6.214;2022-09-09T04:47:32;14.10;99.90
62339;DHT22;48368;53.406;6.214;2022-09-09T04:49:58;14.10;99.90
62339;DHT22;48368;53.406;6.214;2022-09-09T04:52:24;14.20;99.90
62339;DHT22;48368;53.406;6.214;2022-09-09T04:54:49;14.10;99.90
62339;DHT22;48368;53.406;6.214;2022-09-09T04:57:15;14.10;99.90
62339;DHT22;48368;53.406;6.214;2022-09-09T04:59:41;14.20;99.90
62339;DHT22;48368;53.406;6.214;2022-09-09T05:02:07;14.20;99.90
62339;DHT22;48368;53.406;6.214;2022-09-09T05:04:32;14.20;99.90
62339;DHT22;48368;53.406;6.214;2022-09-09T05:06:58;14.20;99.90
62339;DHT22;48368;53.406;6.214;2022-09-09T05:09:25;14.20;99.90
62339;DHT22;48368;53.406;6.214;2022-09-09T05:11:50;14.20;99.90
62339;DHT22;48368;53.406;6.214;2022-09-09T05:14:17;14.20;99.90
62339;DHT22;48368;53.406;6.214;2022-09-09T05:16:44;14.20;99.90
62339;DHT22;48368;53.406;6.214;2022-09-09T05:19:10;14.20;99.90
62339;DHT22;48368;53.406;6.214;2022-09-09T05:21:37;14.20;99.90
62339;DHT22;48368;53.406;6.214;2022-09-09T05:24:02;14.20;99.90
62339;DHT22;48368;53.406;6.214;2022-09-09T05:26:28;14.20;99.90
62339;DHT22;48368;53.406;6.214;2022-09-09T05:28:55;14.30;99.90
62339;DHT22;48368;53.406;6.214;2022-09-09T05:31:21;14.20;99.90
62339;DHT22;48368;53.406;6.214;2022-09-09T05:33:47;14.20;99.90
62339;DHT22;48368;53.406;6.214;2022-09-09T05:36:19;14.20;99.90
62339;DHT22;48368;53.406;6.214;2022-09-09T05:38:46;14.30;99.90
62339;DHT22;48368;53.406;6.214;2022-09-09T05:41:13;14.30;99.90
62339;DHT22;48368;53.406;6.214;2022-09-09T05:43:41;14.30;99.90
62339;DHT22;48368;53.406;6.214;2022-09-09T05:46:11;14.30;99.90
62339;DHT22;48368;53.406;6.214;2022-09-09T05:48:39;14.40;99.90
62339;DHT22;48368;53.406;6.214;2022-09-09T05:51:06;14.40;99.90
62339;DHT22;48368;53.406;6.214;2022-09-09T05:53:33;14.30;99.90
62339;DHT22;48368;53.406;6.214;2022-09-09T05:56:05;14.40;99.90
62339;DHT22;48368;53.406;6.214;2022-09-09T05:58:34;14.40;99.90
62339;DHT22;48368;53.406;6.214;2022-09-09T06:01:04;14.40;99.90
62339;DHT22;48368;53.406;6.214;2022-09-09T06:03:30;14.40;99.90
62339;DHT22;48368;53.406;6.214;2022-09-09T06:05:58;14.40;99.90
62339;DHT22;48368;53.406;6.214;2022-09-09T06:08:24;14.40;99.90
62339;DHT22;48368;53.406;6.214;2022-09-09T06:10:50;14.40;99.90
62339;DHT22;48368;53.406;6.214;2022-09-09T06:13:17;14.40;99.90
62339;DHT22;48368;53.406;6.214;2022-09-09T06:15:52;14.40;99.90
62339;DHT22;48368;53.406;6.214;2022-09-09T06:18:19;14.40;99.90
62339;DHT22;48368;53.406;6.214;2022-09-09T06:20:58;14.40;99.90
62339;DHT22;48368;53.406;6.214;2022-09-09T06:23:26;14.50;99.90
62339;DHT22;48368;53.406;6.214;2022-09-09T06:26:00;14.50;99.90
62339;DHT22;48368;53.406;6.214;2022-09-09T06:28:26;14.50;99.90
62339;DHT22;48368;53.406;6.214;2022-09-09T06:30:57;14.50;99.90
62339;DHT22;48368;53.406;6.214;2022-09-09T06:33:24;14.50;99.90
62339;DHT22;48368;53.406;6.214;2022-09-09T06:35:53;14.50;99.90
62339;DHT22;48368;53.406;6.214;2022-09-09T06:38:19;14.60;99.90
62339;DHT22;48368;53.406;6.214;2022-09-09T06:40:55;14.60;99.90
62339;DHT22;48368;53.406;6.214;2022-09-09T06:43:22;14.60;99.90
62339;DHT22;48368;53.406;6.214;2022-09-09T06:48:29;14.60;99.90
62339;DHT22;48368;53.406;6.214;2022-09-09T06:51:04;14.70;99.90
62339;DHT22;48368;53.406;6.214;2022-09-09T06:53:32;14.60;99.90
62339;DHT22;48368;53.406;6.214;2022-09-09T06:56:02;14.60;99.90
62339;DHT22;48368;53.406;6.214;2022-09-09T06:58:28;14.70;99.90
62339;DHT22;48368;53.406;6.214;2022-09-09T07:01:07;14.80;99.90
62339;DHT22;48368;53.406;6.214;2022-09-09T07:03:33;14.80;99.90
62339;DHT22;48368;53.406;6.214;2022-09-09T07:05:59;15.00;99.90
62339;DHT22;48368;53.406;6.214;2022-09-09T07:08:25;15.10;99.90
62339;DHT22;48368;53.406;6.214;2022-09-09T07:10:52;15.10;99.90
62339;DHT22;48368;53.406;6.214;2022-09-09T07:13:25;15.20;99.90
62339;DHT22;48368;53.406;6.214;2022-09-09T07:15:51;15.20;99.90
62339;DHT22;48368;53.406;6.214;2022-09-09T07:18:18;15.10;99.90
62339;DHT22;48368;53.406;6.214;2022-09-09T07:20:53;15.10;99.90
62339;DHT22;48368;53.406;6.214;2022-09-09T07:23:18;15.10;99.90
62339;DHT22;48368;53.406;6.214;2022-09-09T07:25:45;15.20;99.90
62339;DHT22;48368;53.406;6.214;2022-09-09T07:28:11;15.10;99.90
62339;DHT22;48368;53.406;6.214;2022-09-09T07:30:36;15.20;99.90
62339;DHT22;48368;53.406;6.214;2022-09-09T07:33:02;15.20;99.90
62339;DHT22;48368;53.406;6.214;2022-09-09T07:35:28;15.20;99.90
62339;DHT22;48368;53.406;6.214;2022-09-09T07:37:54;15.20;99.90
62339;DHT22;48368;53.406;6.214;2022-09-09T07:40:20;15.10;99.90
62339;DHT22;48368;53.406;6.214;2022-09-09T07:42:47;15.20;99.90
62339;DHT22;48368;53.406;6.214;2022-09-09T07:45:13;15.20;99.90
62339;DHT22;48368;53.406;6.214;2022-09-09T07:47:40;15.20;99.90
62339;DHT22;48368;53.406;6.214;2022-09-09T07:50:08;15.30;99.90
62339;DHT22;48368;53.406;6.214;2022-09-09T07:52:34;15.30;99.90
62339;DHT22;48368;53.406;6.214;2022-09-09T07:55:00;15.30;99.90
62339;DHT22;48368;53.406;6.214;2022-09-09T07:57:28;15.40;99.90
62339;DHT22;48368;53.406;6.214;2022-09-09T07:59:56;15.40;99.90
62339;DHT22;48368;53.406;6.214;2022-09-09T08:02:22;15.60;99.90
62339;DHT22;48368;53.406;6.214;2022-09-09T08:04:48;15.60;99.90
62339;DHT22;48368;53.406;6.214;2022-09-09T08:07:14;15.70;99.90
62339;DHT22;48368;53.406;6.214;2022-09-09T08:09:41;15.80;99.90
62339;DHT22;48368;53.406;6.214;2022-09-09T08:12:07;15.80;99.90
62339;DHT22;48368;53.406;6.214;2022-09-09T08:14:33;16.00;99.90
62339;DHT22;48368;53.406;6.214;2022-09-09T08:16:59;16.10;99.90
62339;DHT22;48368;53.406;6.214;2022-09-09T08:19:25;16.20;99.90
62339;DHT22;48368;53.406;6.214;2022-09-09T08:21:54;16.30;99.90
62339;DHT22;48368;53.406;6.214;2022-09-09T08:24:19;16.50;99.90
62339;DHT22;48368;53.406;6.214;2022-09-09T08:26:47;16.60;99.90
62339;DHT22;48368;53.406;6.214;2022-09-09T08:29:15;16.70;99.90
62339;DHT22;48368;53.406;6.214;2022-09-09T08:31:55;16.80;99.90
62339;DHT22;48368;53.406;6.214;2022-09-09T08:34:23;16.80;99.90
62339;DHT22;48368;53.406;6.214;2022-09-09T08:36:50;17.00;99.90
62339;DHT22;48368;53.406;6.214;2022-09-09T08:39:18;17.00;99.90
62339;DHT22;48368;53.406;6.214;2022-09-09T08:50:11;16.80;99.90
62339;DHT22;48368;53.406;6.214;2022-09-09T08:53:00;16.70;99.90
62339;DHT22;48368;53.406;6.214;2022-09-09T08:55:35;16.70;99.90
62339;DHT22;48368;53.406;6.214;2022-09-09T08:58:19;16.70;99.90
62339;DHT22;48368;53.406;6.214;2022-09-09T09:01:02;16.90;99.90
62339;DHT22;48368;53.406;6.214;2022-09-09T09:11:58;17.00;99.90
62339;DHT22;48368;53.406;6.214;2022-09-09T09:14:28;17.20;99.90
62339;DHT22;48368;53.406;6.214;2022-09-09T09:17:04;17.10;99.90
62339;DHT22;48368;53.406;6.214;2022-09-09T09:19:33;17.20;99.90
62339;DHT22;48368;53.406;6.214;2022-09-09T09:22:04;17.20;99.90
62339;DHT22;48368;53.406;6.214;2022-09-09T09:24:40;17.30;99.90
62339;DHT22;48368;53.406;6.214;2022-09-09T09:27:14;17.30;99.90
62339;DHT22;48368;53.406;6.214;2022-09-09T09:29:40;17.40;99.90
62339;DHT22;48368;53.406;6.214;2022-09-09T09:32:11;17.40;99.90
62339;DHT22;48368;53.406;6.214;2022-09-09T09:34:39;17.50;99.90
62339;DHT22;48368;53.406;6.214;2022-09-09T09:37:23;17.50;99.90
62339;DHT22;48368;53.406;6.214;2022-09-09T09:39:53;17.60;99.90
62339;DHT22;48368;53.406;6.214;2022-09-09T09:42:19;17.70;99.90
62339;DHT22;48368;53.406;6.214;2022-09-09T09:44:44;17.90;99.90
62339;DHT22;48368;53.406;6.214;2022-09-09T09:47:19;17.90;99.90
62339;DHT22;48368;53.406;6.214;2022-09-09T09:49:53;17.90;99.90
62339;DHT22;48368;53.406;6.214;2022-09-09T09:52:25;17.90;99.90
62339;DHT22;48368;53.406;6.214;2022-09-09T09:54:52;18.00;99.90
62339;DHT22;48368;53.406;6.214;2022-09-09T09:57:24;18.00;99.90
62339;DHT22;48368;53.406;6.214;2022-09-09T10:00:03;17.90;99.90
62339;DHT22;48368;53.406;6.214;2022-09-09T10:02:38;18.00;99.90
62339;DHT22;48368;53.406;6.214;2022-09-09T10:05:25;18.00;99.90
62339;DHT22;48368;53.406;6.214;2022-09-09T10:08:20;17.90;99.90
62339;DHT22;48368;53.406;6.214;2022-09-09T10:13:46;18.00;99.90
62339;DHT22;48368;53.406;6.214;2022-09-09T10:19:04;17.90;99.90
62339;DHT22;48368;53.406;6.214;2022-09-09T10:35:19;17.80;99.90
62339;DHT22;48368;53.406;6.214;2022-09-09T10:38:10;17.80;99.90
62339;DHT22;48368;53.406;6.214;2022-09-09T10:40:48;17.80;99.90
62339;DHT22;48368;53.406;6.214;2022-09-09T10:43:43;17.90;99.90
62339;DHT22;48368;53.406;6.214;2022-09-09T10:46:36;18.00;99.90
62339;DHT22;48368;53.406;6.214;2022-09-09T10:51:48;18.10;99.90
62339;DHT22;48368;53.406;6.214;2022-09-09T10:54:50;18.20;99.90
62339;DHT22;48368;53.406;6.214;2022-09-09T10:57:30;18.20;99.90
62339;DHT22;48368;53.406;6.214;2022-09-09T11:00:06;18.20;99.90
62339;DHT22;48368;53.406;6.214;2022-09-09T11:02:33;18.20;99.90
62339;DHT22;48368;53.406;6.214;2022-09-09T11:05:19;18.20;99.90
62339;DHT22;48368;53.406;6.214;2022-09-09T11:07:50;18.20;99.90
62339;DHT22;48368;53.406;6.214;2022-09-09T11:10:34;18.20;99.90
62339;DHT22;48368;53.406;6.214;2022-09-09T11:13:04;18.30;99.90
62339;DHT22;48368;53.406;6.214;2022-09-09T11:15:44;18.40;99.90
62339;DHT22;48368;53.406;6.214;2022-09-09T11:18:15;18.50;99.90
62339;DHT22;48368;53.406;6.214;2022-09-09T11:20:44;18.60;99.90
62339;DHT22;48368;53.406;6.214;2022-09-09T11:23:23;18.70;99.90
62339;DHT22;48368;53.406;6.214;2022-09-09T11:25:59;18.80;99.90
62339;DHT22;48368;53.406;6.214;2022-09-09T11:34:31;19.00;99.90
62339;DHT22;48368;53.406;6.214;2022-09-09T11:43:19;19.50;99.90
62339;DHT22;48368;53.406;6.214;2022-09-09T11:46:02;19.70;99.90
62339;DHT22;48368;53.406;6.214;2022-09-09T11:52:37;19.80;99.90
62339;DHT22;48368;53.406;6.214;2022-09-09T11:55:32;19.80;99.90
62339;DHT22;48368;53.406;6.214;2022-09-09T11:57:59;19.70;99.90
62339;DHT22;48368;53.406;6.214;2022-09-09T12:02:59;19.50;99.90
62339;DHT22;48368;53.406;6.214;2022-09-09T12:05:42;19.60;99.90
62339;DHT22;48368;53.406;6.214;2022-09-09T12:08:15;19.70;99.90
62339;DHT22;48368;53.406;6.214;2022-09-09T12:10:56;19.70;99.90
62339;DHT22;48368;53.406;6.214;2022-09-09T12:13:25;19.60;99.90
62339;DHT22;48368;53.406;6.214;2022-09-09T12:15:57;19.50;99.90
62339;DHT22;48368;53.406;6.214;2022-09-09T12:18:25;19.60;99.90
62339;DHT22;48368;53.406;6.214;2022-09-09T12:24:13;19.50;99.90
62339;DHT22;48368;53.406;6.214;2022-09-09T12:26:55;19.50;99.90
62339;DHT22;48368;53.406;6.214;2022-09-09T12:34:47;19.30;99.90
62339;DHT22;48368;53.406;6.214;2022-09-09T12:40:00;19.40;99.90
62339;DHT22;48368;53.406;6.214;2022-09-09T12:42:28;19.70;99.90
62339;DHT22;48368;53.406;6.214;2022-09-09T12:44:58;20.00;99.90
62339;DHT22;48368;53.406;6.214;2022-09-09T12:48:14;20.10;99.90
62339;DHT22;48368;53.406;6.214;2022-09-09T12:50:30;20.20;99.90
62339;DHT22;48368;53.406;6.214;2022-09-09T12:52:59;20.20;99.90
62339;DHT22;48368;53.406;6.214;2022-09-09T12:55:32;19.90;99.90
62339;DHT22;48368;53.406;6.214;2022-09-09T12:58:04;19.90;99.90
62339;DHT22;48368;53.406;6.214;2022-09-09T13:00:32;19.80;99.90
62339;DHT22;48368;53.406;6.214;2022-09-09T13:03:00;19.90;99.90
62339;DHT22;48368;53.406;6.214;2022-09-09T13:05:35;20.10;99.90
62339;DHT22;48368;53.406;6.214;2022-09-09T13:08:03;20.20;99.90
62339;DHT22;48368;53.406;6.214;2022-09-09T13:10:33;20.40;99.90
62339;DHT22;48368;53.406;6.214;2022-09-09T13:12:59;20.40;99.90
62339;DHT22;48368;53.406;6.214;2022-09-09T13:15:28;20.50;99.90
62339;DHT22;48368;53.406;6.214;2022-09-09T13:18:02;20.60;99.90
62339;DHT22;48368;53.406;6.214;2022-09-09T13:20:30;20.60;99.90
62339;DHT22;48368;53.406;6.214;2022-09-09T13:22:57;20.60;99.90
62339;DHT22;48368;53.406;6.214;2022-09-09T13:25:27;20.60;99.90
62339;DHT22;48368;53.406;6.214;2022-09-09T13:28:01;20.50;99.90
62339;DHT22;48368;53.406;6.214;2022-09-09T13:30:35;20.50;99.90
62339;DHT22;48368;53.406;6.214;2022-09-09T13:35:44;20.50;99.90
62339;DHT22;48368;53.406;6.214;2022-09-09T13:38:14;20.60;99.90
62339;DHT22;48368;53.406;6.214;2022-09-09T13:40:40;20.50;99.90
62339;DHT22;48368;53.406;6.214;2022-09-09T13:43:17;20.50;99.90
62339;DHT22;48368;53.406;6.214;2022-09-09T13:45:53;20.40;99.90
62339;DHT22;48368;53.406;6.214;2022-09-09T13:48:19;20.40;99.90
62339;DHT22;48368;53.406;6.214;2022-09-09T13:50:54;20.30;99.90
62339;DHT22;48368;53.406;6.214;2022-09-09T13:53:20;20.30;99.90
62339;DHT22;48368;53.406;6.214;2022-09-09T13:55:46;20.30;99.90
62339;DHT22;48368;53.406;6.214;2022-09-09T13:58:16;20.20;99.90
62339;DHT22;48368;53.406;6.214;2022-09-09T14:00:44;20.20;99.90
62339;DHT22;48368;53.406;6.214;2022-09-09T14:03:10;20.00;99.90
62339;DHT22;48368;53.406;6.214;2022-09-09T14:05:36;19.90;99.90
62339;DHT22;48368;53.406;6.214;2022-09-09T14:08:07;19.90;99.90
62339;DHT22;48368;53.406;6.214;2022-09-09T14:10:33;19.90;99.90
62339;DHT22;48368;53.406;6.214;2022-09-09T14:13:02;19.80;99.90
62339;DHT22;48368;53.406;6.214;2022-09-09T14:15:28;19.70;99.90
62339;DHT22;48368;53.406;6.214;2022-09-09T14:17:54;19.70;99.90
62339;DHT22;48368;53.406;6.214;2022-09-09T14:20:20;19.50;99.90
62339;DHT22;48368;53.406;6.214;2022-09-09T14:22:46;19.20;99.90
62339;DHT22;48368;53.406;6.214;2022-09-09T14:25:12;19.10;99.90
62339;DHT22;48368;53.406;6.214;2022-09-09T14:27:40;19.00;99.90
62339;DHT22;48368;53.406;6.214;2022-09-09T14:30:08;19.10;99.90
62339;DHT22;48368;53.406;6.214;2022-09-09T14:32:34;19.10;99.90
62339;DHT22;48368;53.406;6.214;2022-09-09T14:35:00;19.20;99.90
62339;DHT22;48368;53.406;6.214;2022-09-09T14:37:27;19.20;99.90
62339;DHT22;48368;53.406;6.214;2022-09-09T14:39:52;19.20;99.90
62339;DHT22;48368;53.406;6.214;2022-09-09T14:42:19;19.20;99.90
62339;DHT22;48368;53.406;6.214;2022-09-09T14:44:44;19.10;99.90
62339;DHT22;48368;53.406;6.214;2022-09-09T14:47:10;19.00;99.90
62339;DHT22;48368;53.406;6.214;2022-09-09T14:49:37;19.00;99.90
62339;DHT22;48368;53.406;6.214;2022-09-09T14:52:03;19.10;99.90
62339;DHT22;48368;53.406;6.214;2022-09-09T14:54:29;19.00;99.90
62339;DHT22;48368;53.406;6.214;2022-09-09T14:56:55;18.90;99.90
62339;DHT22;48368;53.406;6.214;2022-09-09T14:59:22;19.00;99.90
62339;DHT22;48368;53.406;6.214;2022-09-09T15:01:47;19.00;99.90
62339;DHT22;48368;53.406;6.214;2022-09-09T15:04:13;19.00;99.90
62339;DHT22;48368;53.406;6.214;2022-09-09T15:06:42;19.00;99.90
62339;DHT22;48368;53.406;6.214;2022-09-09T15:09:10;19.10;99.90
62339;DHT22;48368;53.406;6.214;2022-09-09T15:11:37;19.20;99.90
62339;DHT22;48368;53.406;6.214;2022-09-09T15:14:04;19.10;99.90
62339;DHT22;48368;53.406;6.214;2022-09-09T15:16:30;19.00;99.90
62339;DHT22;48368;53.406;6.214;2022-09-09T15:18:58;19.20;99.90
62339;DHT22;48368;53.406;6.214;2022-09-09T15:21:26;19.20;99.90
62339;DHT22;48368;53.406;6.214;2022-09-09T15:23:52;19.30;99.90
62339;DHT22;48368;53.406;6.214;2022-09-09T15:26:19;19.20;99.90
62339;DHT22;48368;53.406;6.214;2022-09-09T15:28:46;19.20;99.90
62339;DHT22;48368;53.406;6.214;2022-09-09T15:31:13;19.30;99.90
62339;DHT22;48368;53.406;6.214;2022-09-09T15:33:40;19.30;99.90
62339;DHT22;48368;53.406;6.214;2022-09-09T15:36:17;19.10;99.90
62339;DHT22;48368;53.406;6.214;2022-09-09T15:38:43;19.20;99.90
62339;DHT22;48368;53.406;6.214;2022-09-09T15:41:10;19.20;99.90
62339;DHT22;48368;53.406;6.214;2022-09-09T15:43:36;19.10;99.90
62339;DHT22;48368;53.406;6.214;2022-09-09T15:46:23;19.10;99.90
62339;DHT22;48368;53.406;6.214;2022-09-09T15:48:50;19.20;99.90
62339;DHT22;48368;53.406;6.214;2022-09-09T15:51:16;19.20;99.90
62339;DHT22;48368;53.406;6.214;2022-09-09T15:53:41;19.20;99.90
62339;DHT22;48368;53.406;6.214;2022-09-09T15:56:08;19.10;99.90
62339;DHT22;48368;53.406;6.214;2022-09-09T15:58:35;19.20;99.90
62339;DHT22;48368;53.406;6.214;2022-09-09T16:01:08;19.10;99.90
62339;DHT22;48368;53.406;6.214;2022-09-09T16:03:38;19.00;99.90
62339;DHT22;48368;53.406;6.214;2022-09-09T16:06:05;18.90;99.90
62339;DHT22;48368;53.406;6.214;2022-09-09T16:08:35;18.70;99.90
62339;DHT22;48368;53.406;6.214;2022-09-09T16:13:33;18.60;99.90
62339;DHT22;48368;53.406;6.214;2022-09-09T16:15:59;18.60;99.90
62339;DHT22;48368;53.406;6.214;2022-09-09T16:18:25;18.50;99.90
62339;DHT22;48368;53.406;6.214;2022-09-09T16:20:54;18.50;99.90
62339;DHT22;48368;53.406;6.214;2022-09-09T16:23:20;18.40;99.90
62339;DHT22;48368;53.406;6.214;2022-09-09T16:25:55;18.40;99.90
62339;DHT22;48368;53.406;6.214;2022-09-09T16:28:21;18.20;99.90
62339;DHT22;48368;53.406;6.214;2022-09-09T16:30:48;18.10;99.90
62339;DHT22;48368;53.406;6.214;2022-09-09T16:33:13;18.00;99.90
62339;DHT22;48368;53.406;6.214;2022-09-09T16:35:42;18.00;99.90
62339;DHT22;48368;53.406;6.214;2022-09-09T16:38:07;17.90;99.90
62339;DHT22;48368;53.406;6.214;2022-09-09T16:40:39;17.80;99.90
62339;DHT22;48368;53.406;6.214;2022-09-09T16:43:07;17.80;99.90
62339;DHT22;48368;53.406;6.214;2022-09-09T16:45:33;17.80;99.90
62339;DHT22;48368;53.406;6.214;2022-09-09T16:48:02;17.90;99.90
62339;DHT22;48368;53.406;6.214;2022-09-09T16:50:27;17.80;99.90
62339;DHT22;48368;53.406;6.214;2022-09-09T16:52:53;17.80;99.90
62339;DHT22;48368;53.406;6.214;2022-09-09T16:55:21;17.80;99.90
62339;DHT22;48368;53.406;6.214;2022-09-09T16:57:47;17.80;99.90
62339;DHT22;48368;53.406;6.214;2022-09-09T17:00:16;17.70;99.90
62339;DHT22;48368;53.406;6.214;2022-09-09T17:02:44;17.70;99.90
62339;DHT22;48368;53.406;6.214;2022-09-09T17:05:10;17.50;99.90
62339;DHT22;48368;53.406;6.214;2022-09-09T17:07:37;17.60;99.90
62339;DHT22;48368;53.406;6.214;2022-09-09T17:10:07;17.60;99.90
62339;DHT22;48368;53.406;6.214;2022-09-09T17:12:33;17.60;99.90
62339;DHT22;48368;53.406;6.214;2022-09-09T17:15:01;17.50;99.90
62339;DHT22;48368;53.406;6.214;2022-09-09T17:17:28;17.60;99.90
62339;DHT22;48368;53.406;6.214;2022-09-09T17:19:54;17.50;99.90
62339;DHT22;48368;53.406;6.214;2022-09-09T17:22:19;17.50;99.90
62339;DHT22;48368;53.406;6.214;2022-09-09T17:24:46;17.50;99.90
62339;DHT22;48368;53.406;6.214;2022-09-09T17:27:12;17.50;99.90
62339;DHT22;48368;53.406;6.214;2022-09-09T17:29:38;17.50;99.90